sensor_id;sensor_type;location;lat;lon;timestamp;temperature;humidity
14057;DHT22;7103;54.300;10.180;2022-11-11T00:01:12;13.50;52.60
14057;DHT22;7103;54.300;10.180;2022-11-11T00:03:41;13.50;52.50
14057;DHT22;7103;54.300;10.180;2022-11-11T00:06:10;13.50;46.80
14057;DHT22;7103;54.300;10.180;2022-11-11T00:08:37;13.50;48.80
14057;DHT22;7103;54.300;10.180;2022-11-11T00:11:07;13.50;49.20
14057;DHT22;7103;54.300;10.180;2022-11-11T00:13:35;13.50;46.90
14057;DHT22;7103;54.300;10.180;2022-11-11T00:16:17;13.60;43.60
14057;DHT22;7103;54.300;10.180;2022-11-11T00:18:45;13.50;40.60
14057;DHT22;7103;54.300;10.180;2022-11-11T00:21:31;14.00;40.40
14057;DHT22;7103;54.300;10.180;2022-11-11T00:24:07;13.50;33.20
14057;DHT22;7103;54.300;10.180;2022-11-11T00:26:54;13.50;29.60
14057;DHT22;7103;54.300;10.180;2022-11-11T00:29:21;13.50;38.90
14057;DHT22;7103;54.300;10.180;2022-11-11T00:31:48;13.40;39.90
14057;DHT22;7103;54.300;10.180;2022-11-11T00:34:33;13.50;37.50
14057;DHT22;7103;54.300;10.180;2022-11-11T00:37:01;13.50;33.90
14057;DHT22;7103;54.300;10.180;2022-11-11T00:39:27;13.50;30.50
14057;DHT22;7103;54.300;10.180;2022-11-11T00:41:54;13.50;31.40
14057;DHT22;7103;54.300;10.180;2022-11-11T00:44:21;13.40;29.10
14057;DHT22;7103;54.300;10.180;2022-11-11T00:46:48;13.30;41.60
14057;DHT22;7103;54.300;10.180;2022-11-11T00:49:33;13.30;48.30
14057;DHT22;7103;54.300;10.180;2022-11-11T00:52:19;13.40;42.80
14057;DHT22;7103;54.300;10.180;2022-11-11T00:54:45;13.40;40.90
14057;DHT22;7103;54.300;10.180;2022-11-11T00:57:12;13.40;41.20
14057;DHT22;7103;54.300;10.180;2022-11-11T00:59:39;13.40;40.70
14057;DHT22;7103;54.300;10.180;2022-11-11T01:02:06;13.40;43.50
14057;DHT22;7103;54.300;10.180;2022-11-11T01:04:33;13.40;49.20
14057;DHT22;7103;54.300;10.180;2022-11-11T01:07:00;13.40;47.70
14057;DHT22;7103;54.300;10.180;2022-11-11T01:09:27;13.40;42.10
14057;DHT22;7103;54.300;10.180;2022-11-11T01:11:54;13.40;42.20
14057;DHT22;7103;54.300;10.180;2022-11-11T01:14:21;13.40;44.60
14057;DHT22;7103;54.300;10.180;2022-11-11T01:16:47;13.40;49.40
14057;DHT22;7103;54.300;10.180;2022-11-11T01:19:14;13.30;48.30
14057;DHT22;7103;54.300;10.180;2022-11-11T01:21:41;13.30;54.40
14057;DHT22;7103;54.300;10.180;2022-11-11T01:24:08;13.40;55.20
14057;DHT22;7103;54.300;10.180;2022-11-11T01:26:35;13.30;57.90
14057;DHT22;7103;54.300;10.180;2022-11-11T01:29:02;13.30;69.30
14057;DHT22;7103;54.300;10.180;2022-11-11T01:31:29;13.20;69.00
14057;DHT22;7103;54.300;10.180;2022-11-11T01:33:56;13.30;69.00
14057;DHT22;7103;54.300;10.180;2022-11-11T01:36:25;13.20;68.70
14057;DHT22;7103;54.300;10.180;2022-11-11T01:38:55;13.30;73.90
14057;DHT22;7103;54.300;10.180;2022-11-11T01:41:29;13.30;63.20
14057;DHT22;7103;54.300;10.180;2022-11-11T01:44:19;13.30;61.70
14057;DHT22;7103;54.300;10.180;2022-11-11T01:47:05;13.40;60.80
14057;DHT22;7103;54.300;10.180;2022-11-11T01:52:37;13.30;70.90
14057;DHT22;7103;54.300;10.180;2022-11-11T01:55:12;13.30;67.10
14057;DHT22;7103;54.300;10.180;2022-11-11T01:57:54;13.30;61.40
14057;DHT22;7103;54.300;10.180;2022-11-11T02:00:23;13.20;71.00
14057;DHT22;7103;54.300;10.180;2022-11-11T02:02:57;13.20;71.60
14057;DHT22;7103;54.300;10.180;2022-11-11T02:05:26;13.20;70.00
14057;DHT22;7103;54.300;10.180;2022-11-11T02:08:34;13.30;70.30
14057;DHT22;7103;54.300;10.180;2022-11-11T02:11:14;13.20;74.40
14057;DHT22;7103;54.300;10.180;2022-11-11T02:13:43;13.20;74.30
14057;DHT22;7103;54.300;10.180;2022-11-11T02:16:28;13.10;81.10
14057;DHT22;7103;54.300;10.180;2022-11-11T02:18:55;13.10;81.60
14057;DHT22;7103;54.300;10.180;2022-11-11T02:21:44;13.10;81.70
14057;DHT22;7103;54.300;10.180;2022-11-11T02:24:18;13.20;81.20
14057;DHT22;7103;54.300;10.180;2022-11-11T02:26:47;13.20;81.30
14057;DHT22;7103;54.300;10.180;2022-11-11T02:29:21;13.30;81.30
14057;DHT22;7103;54.300;10.180;2022-11-11T02:31:49;13.30;79.30
14057;DHT22;7103;54.300;10.180;2022-11-11T02:34:16;13.40;79.60
14057;DHT22;7103;54.300;10.180;2022-11-11T02:36:43;13.30;81.10
14057;DHT22;7103;54.300;10.180;2022-11-11T02:39:10;13.30;81.40
14057;DHT22;7103;54.300;10.180;2022-11-11T02:41:37;13.40;81.40
14057;DHT22;7103;54.300;10.180;2022-11-11T02:44:24;13.30;80.70
14057;DHT22;7103;54.300;10.180;2022-11-11T02:46:51;13.30;81.60
14057;DHT22;7103;54.300;10.180;2022-11-11T02:49:18;13.20;85.50
14057;DHT22;7103;54.300;10.180;2022-11-11T02:51:45;13.20;88.30
14057;DHT22;7103;54.300;10.180;2022-11-11T02:54:13;13.20;83.90
14057;DHT22;7103;54.300;10.180;2022-11-11T02:56:40;13.30;81.70
14057;DHT22;7103;54.300;10.180;2022-11-11T02:59:25;13.20;81.20
14057;DHT22;7103;54.300;10.180;2022-11-11T03:01:52;13.20;91.50
14057;DHT22;7103;54.300;10.180;2022-11-11T03:04:19;13.20;88.90
14057;DHT22;7103;54.300;10.180;2022-11-11T03:06:47;13.20;91.10
14057;DHT22;7103;54.300;10.180;2022-11-11T03:09:14;13.20;91.90
14057;DHT22;7103;54.300;10.180;2022-11-11T03:11:41;13.10;96.30
14057;DHT22;7103;54.300;10.180;2022-11-11T03:14:08;13.10;89.50
14057;DHT22;7103;54.300;10.180;2022-11-11T03:16:35;13.10;91.50
14057;DHT22;7103;54.300;10.180;2022-11-11T03:19:20;13.10;92.30
14057;DHT22;7103;54.300;10.180;2022-11-11T03:21:47;13.10;94.70
14057;DHT22;7103;54.300;10.180;2022-11-11T03:24:34;13.10;97.20
14057;DHT22;7103;54.300;10.180;2022-11-11T03:27:20;13.10;98.30
14057;DHT22;7103;54.300;10.180;2022-11-11T03:29:46;13.10;94.60
14057;DHT22;7103;54.300;10.180;2022-11-11T03:32:13;13.10;97.10
14057;DHT22;7103;54.300;10.180;2022-11-11T03:34:40;13.00;98.50
14057;DHT22;7103;54.300;10.180;2022-11-11T03:37:09;13.10;99.90
14057;DHT22;7103;54.300;10.180;2022-11-11T03:39:55;13.20;95.60
14057;DHT22;7103;54.300;10.180;2022-11-11T03:42:22;13.10;96.30
14057;DHT22;7103;54.300;10.180;2022-11-11T03:44:48;13.20;97.30
14057;DHT22;7103;54.300;10.180;2022-11-11T03:47:15;13.20;94.50
14057;DHT22;7103;54.300;10.180;2022-11-11T03:49:42;13.10;98.60
14057;DHT22;7103;54.300;10.180;2022-11-11T03:52:11;13.10;96.50
14057;DHT22;7103;54.300;10.180;2022-11-11T03:54:39;13.10;99.90
14057;DHT22;7103;54.300;10.180;2022-11-11T03:57:05;13.10;99.90
14057;DHT22;7103;54.300;10.180;2022-11-11T03:59:51;13.10;98.80
14057;DHT22;7103;54.300;10.180;2022-11-11T04:02:18;13.10;99.90
14057;DHT22;7103;54.300;10.180;2022-11-11T04:05:04;13.10;99.90
14057;DHT22;7103;54.300;10.180;2022-11-11T04:07:50;13.10;98.00
14057;DHT22;7103;54.300;10.180;2022-11-11T04:10:36;13.10;98.40
14057;DHT22;7103;54.300;10.180;2022-11-11T04:13:04;13.00;99.90
14057;DHT22;7103;54.300;10.180;2022-11-11T04:15:50;13.10;99.90
14057;DHT22;7103;54.300;10.180;2022-11-11T04:18:33;13.10;99.90
14057;DHT22;7103;54.300;10.180;2022-11-11T04:21:20;13.10;99.90
14057;DHT22;7103;54.300;10.180;2022-11-11T04:24:07;13.10;99.90
14057;DHT22;7103;54.300;10.180;2022-11-11T04:26:53;13.10;99.90
14057;DHT22;7103;54.300;10.180;2022-11-11T04:29:21;13.10;99.90
14057;DHT22;7103;54.300;10.180;2022-11-11T04:34:44;13.10;99.90
14057;DHT22;7103;54.300;10.180;2022-11-11T04:37:11;13.10;99.90
14057;DHT22;7103;54.300;10.180;2022-11-11T04:39:39;13.10;99.90
14057;DHT22;7103;54.300;10.180;2022-11-11T04:42:24;12.60;99.90
14057;DHT22;7103;54.300;10.180;2022-11-11T04:44:52;13.10;99.90
14057;DHT22;7103;54.300;10.180;2022-11-11T04:47:38;13.10;99.90
14057;DHT22;7103;54.300;10.180;2022-11-11T04:50:05;13.10;99.90
14057;DHT22;7103;54.300;10.180;2022-11-11T04:52:33;13.10;99.90
14057;DHT22;7103;54.300;10.180;2022-11-11T04:55:00;13.00;99.90
14057;DHT22;7103;54.300;10.180;2022-11-11T04:57:47;13.00;99.90
14057;DHT22;7103;54.300;10.180;2022-11-11T05:00:17;13.00;99.90
14057;DHT22;7103;54.300;10.180;2022-11-11T05:02:44;13.00;99.90
14057;DHT22;7103;54.300;10.180;2022-11-11T05:05:30;13.10;99.90
14057;DHT22;7103;54.300;10.180;2022-11-11T05:08:19;13.00;99.90
14057;DHT22;7103;54.300;10.180;2022-11-11T05:11:05;13.00;99.90
14057;DHT22;7103;54.300;10.180;2022-11-11T05:13:32;13.00;99.90
14057;DHT22;7103;54.300;10.180;2022-11-11T05:16:21;13.00;99.90
14057;DHT22;7103;54.300;10.180;2022-11-11T05:19:09;12.90;99.90
14057;DHT22;7103;54.300;10.180;2022-11-11T05:21:56;13.00;99.90
14057;DHT22;7103;54.300;10.180;2022-11-11T05:24:24;13.00;99.90
14057;DHT22;7103;54.300;10.180;2022-11-11T05:27:10;13.00;99.90
14057;DHT22;7103;54.300;10.180;2022-11-11T05:29:37;13.00;99.90
14057;DHT22;7103;54.300;10.180;2022-11-11T05:32:04;13.00;99.90
14057;DHT22;7103;54.300;10.180;2022-11-11T05:34:32;13.00;99.90
14057;DHT22;7103;54.300;10.180;2022-11-11T05:36:59;13.00;99.90
14057;DHT22;7103;54.300;10.180;2022-11-11T05:39:26;12.90;99.90
14057;DHT22;7103;54.300;10.180;2022-11-11T05:41:53;12.90;99.90
14057;DHT22;7103;54.300;10.180;2022-11-11T05:44:20;12.90;99.90
14057;DHT22;7103;54.300;10.180;2022-11-11T05:46:47;12.90;99.90
14057;DHT22;7103;54.300;10.180;2022-11-11T05:49:13;12.90;99.90
14057;DHT22;7103;54.300;10.180;2022-11-11T05:51:42;13.00;99.90
14057;DHT22;7103;54.300;10.180;2022-11-11T05:54:09;13.00;99.90
14057;DHT22;7103;54.300;10.180;2022-11-11T05:56:36;12.90;99.90
14057;DHT22;7103;54.300;10.180;2022-11-11T05:59:04;12.90;99.90
14057;DHT22;7103;54.300;10.180;2022-11-11T06:01:31;12.90;99.90
14057;DHT22;7103;54.300;10.180;2022-11-11T06:03:58;12.90;99.90
14057;DHT22;7103;54.300;10.180;2022-11-11T06:06:25;12.90;99.90
14057;DHT22;7103;54.300;10.180;2022-11-11T06:08:52;12.90;99.90
14057;DHT22;7103;54.300;10.180;2022-11-11T06:11:19;12.90;99.90
14057;DHT22;7103;54.300;10.180;2022-11-11T06:13:46;12.90;99.90
14057;DHT22;7103;54.300;10.180;2022-11-11T06:16:14;12.90;99.90
14057;DHT22;7103;54.300;10.180;2022-11-11T06:18:41;12.90;99.90
14057;DHT22;7103;54.300;10.180;2022-11-11T06:21:08;12.80;99.90
14057;DHT22;7103;54.300;10.180;2022-11-11T06:23:35;13.00;99.90
14057;DHT22;7103;54.300;10.180;2022-11-11T06:26:02;12.90;99.90
14057;DHT22;7103;54.300;10.180;2022-11-11T06:28:45;12.90;99.90
14057;DHT22;7103;54.300;10.180;2022-11-11T06:31:15;12.90;99.90
14057;DHT22;7103;54.300;10.180;2022-11-11T06:33:43;12.90;99.90
14057;DHT22;7103;54.300;10.180;2022-11-11T06:36:11;12.90;99.90
14057;DHT22;7103;54.300;10.180;2022-11-11T06:38:42;12.80;99.90
14057;DHT22;7103;54.300;10.180;2022-11-11T06:41:10;12.80;99.90
14057;DHT22;7103;54.300;10.180;2022-11-11T06:43:41;12.80;99.90
14057;DHT22;7103;54.300;10.180;2022-11-11T06:46:16;12.90;99.90
14057;DHT22;7103;54.300;10.180;2022-11-11T06:48:47;12.80;99.90
14057;DHT22;7103;54.300;10.180;2022-11-11T06:51:14;12.80;99.90
14057;DHT22;7103;54.300;10.180;2022-11-11T06:53:41;12.80;99.90
14057;DHT22;7103;54.300;10.180;2022-11-11T06:56:08;12.70;99.90
14057;DHT22;7103;54.300;10.180;2022-11-11T06:58:35;12.70;99.90
14057;DHT22;7103;54.300;10.180;2022-11-11T07:01:06;12.70;99.90
14057;DHT22;7103;54.300;10.180;2022-11-11T07:03:34;12.70;99.90
14057;DHT22;7103;54.300;10.180;2022-11-11T07:06:03;12.70;99.90
14057;DHT22;7103;54.300;10.180;2022-11-11T07:08:31;12.80;99.90
14057;DHT22;7103;54.300;10.180;2022-11-11T07:10:58;12.70;99.90
14057;DHT22;7103;54.300;10.180;2022-11-11T07:13:34;12.80;99.90
14057;DHT22;7103;54.300;10.180;2022-11-11T07:16:01;12.70;99.90
14057;DHT22;7103;54.300;10.180;2022-11-11T07:18:28;12.70;99.90
14057;DHT22;7103;54.300;10.180;2022-11-11T07:20:55;12.70;99.90
14057;DHT22;7103;54.300;10.180;2022-11-11T07:23:22;12.70;99.90
14057;DHT22;7103;54.300;10.180;2022-11-11T07:25:48;12.80;99.90
14057;DHT22;7103;54.300;10.180;2022-11-11T07:28:15;12.70;99.90
14057;DHT22;7103;54.300;10.180;2022-11-11T07:30:42;12.70;99.90
14057;DHT22;7103;54.300;10.180;2022-11-11T07:33:09;12.70;99.90
14057;DHT22;7103;54.300;10.180;2022-11-11T07:35:36;12.70;99.90
14057;DHT22;7103;54.300;10.180;2022-11-11T07:38:03;12.80;99.90
14057;DHT22;7103;54.300;10.180;2022-11-11T07:40:30;12.70;99.90
14057;DHT22;7103;54.300;10.180;2022-11-11T07:42:56;12.70;99.90
14057;DHT22;7103;54.300;10.180;2022-11-11T07:45:23;12.70;99.90
14057;DHT22;7103;54.300;10.180;2022-11-11T07:47:50;12.70;99.90
14057;DHT22;7103;54.300;10.180;2022-11-11T07:50:17;12.70;99.90
14057;DHT22;7103;54.300;10.180;2022-11-11T07:52:48;12.70;99.90
14057;DHT22;7103;54.300;10.180;2022-11-11T07:55:15;12.70;99.90
14057;DHT22;7103;54.300;10.180;2022-11-11T07:57:42;12.80;99.90
14057;DHT22;7103;54.300;10.180;2022-11-11T08:00:13;12.70;99.90
14057;DHT22;7103;54.300;10.180;2022-11-11T08:02:40;12.70;99.90
14057;DHT22;7103;54.300;10.180;2022-11-11T08:05:08;12.70;99.90
14057;DHT22;7103;54.300;10.180;2022-11-11T08:07:35;12.70;99.90
14057;DHT22;7103;54.300;10.180;2022-11-11T08:10:03;13.00;99.90
14057;DHT22;7103;54.300;10.180;2022-11-11T08:12:30;12.70;99.90
14057;DHT22;7103;54.300;10.180;2022-11-11T08:15:15;12.70;99.90
14057;DHT22;7103;54.300;10.180;2022-11-11T08:17:42;12.70;99.90
14057;DHT22;7103;54.300;10.180;2022-11-11T08:20:10;12.70;99.90
14057;DHT22;7103;54.300;10.180;2022-11-11T08:22:38;12.70;99.90
14057;DHT22;7103;54.300;10.180;2022-11-11T08:25:10;12.70;99.90
14057;DHT22;7103;54.300;10.180;2022-11-11T08:27:40;12.70;99.90
14057;DHT22;7103;54.300;10.180;2022-11-11T08:30:08;12.70;99.90
14057;DHT22;7103;54.300;10.180;2022-11-11T08:32:35;12.70;99.90
14057;DHT22;7103;54.300;10.180;2022-11-11T08:35:02;12.70;99.90
14057;DHT22;7103;54.300;10.180;2022-11-11T08:37:29;12.70;99.90
14057;DHT22;7103;54.300;10.180;2022-11-11T08:39:56;12.70;99.90
14057;DHT22;7103;54.300;10.180;2022-11-11T08:42:23;12.70;99.90
14057;DHT22;7103;54.300;10.180;2022-11-11T08:44:50;12.70;99.90
14057;DHT22;7103;54.300;10.180;2022-11-11T08:47:17;12.70;99.90
14057;DHT22;7103;54.300;10.180;2022-11-11T08:49:46;12.70;99.90
14057;DHT22;7103;54.300;10.180;2022-11-11T08:52:15;12.70;99.90
14057;DHT22;7103;54.300;10.180;2022-11-11T08:54:42;12.70;99.90
14057;DHT22;7103;54.300;10.180;2022-11-11T08:57:09;12.70;99.90
14057;DHT22;7103;54.300;10.180;2022-11-11T08:59:36;12.80;99.90
14057;DHT22;7103;54.300;10.180;2022-11-11T09:02:03;12.80;99.90
14057;DHT22;7103;54.300;10.180;2022-11-11T09:04:29;12.70;99.90
14057;DHT22;7103;54.300;10.180;2022-11-11T09:07:11;12.70;99.90
14057;DHT22;7103;54.300;10.180;2022-11-11T09:09:38;12.70;99.90
14057;DHT22;7103;54.300;10.180;2022-11-11T09:12:05;12.70;99.90
14057;DHT22;7103;54.300;10.180;2022-11-11T09:14:32;12.70;99.90
14057;DHT22;7103;54.300;10.180;2022-11-11T09:16:59;12.70;99.90
14057;DHT22;7103;54.300;10.180;2022-11-11T09:19:26;12.80;99.90
14057;DHT22;7103;54.300;10.180;2022-11-11T09:21:53;12.80;99.90
14057;DHT22;7103;54.300;10.180;2022-11-11T09:24:20;12.80;99.90
14057;DHT22;7103;54.300;10.180;2022-11-11T09:26:47;12.80;99.90
14057;DHT22;7103;54.300;10.180;2022-11-11T09:29:15;12.80;99.90
14057;DHT22;7103;54.300;10.180;2022-11-11T09:31:42;12.80;99.90
14057;DHT22;7103;54.300;10.180;2022-11-11T09:34:12;12.80;99.90
14057;DHT22;7103;54.300;10.180;2022-11-11T09:36:40;12.90;99.90
14057;DHT22;7103;54.300;10.180;2022-11-11T09:39:07;12.90;99.90
14057;DHT22;7103;54.300;10.180;2022-11-11T09:41:47;12.90;99.90
14057;DHT22;7103;54.300;10.180;2022-11-11T09:50:07;12.90;99.90
14057;DHT22;7103;54.300;10.180;2022-11-11T09:55:35;12.80;99.90
14057;DHT22;7103;54.300;10.180;2022-11-11T09:58:22;12.90;99.90
14057;DHT22;7103;54.300;10.180;2022-11-11T10:01:24;12.90;99.90
14057;DHT22;7103;54.300;10.180;2022-11-11T10:03:59;12.90;99.90
14057;DHT22;7103;54.300;10.180;2022-11-11T10:06:30;12.90;99.90
14057;DHT22;7103;54.300;10.180;2022-11-11T10:09:05;13.00;99.90
14057;DHT22;7103;54.300;10.180;2022-11-11T10:11:53;13.00;99.90
14057;DHT22;7103;54.300;10.180;2022-11-11T10:14:32;13.00;99.90
14057;DHT22;7103;54.300;10.180;2022-11-11T10:17:32;12.90;99.90
14057;DHT22;7103;54.300;10.180;2022-11-11T10:20:10;13.00;99.90
14057;DHT22;7103;54.300;10.180;2022-11-11T10:22:44;13.00;99.90
14057;DHT22;7103;54.300;10.180;2022-11-11T10:27:41;13.00;99.90
14057;DHT22;7103;54.300;10.180;2022-11-11T10:30:28;13.10;99.90
14057;DHT22;7103;54.300;10.180;2022-11-11T10:33:01;13.10;99.90
14057;DHT22;7103;54.300;10.180;2022-11-11T10:35:31;13.20;99.90
14057;DHT22;7103;54.300;10.180;2022-11-11T10:40:45;13.30;99.90
14057;DHT22;7103;54.300;10.180;2022-11-11T10:51:09;13.30;99.90
14057;DHT22;7103;54.300;10.180;2022-11-11T10:53:48;13.30;99.90
14057;DHT22;7103;54.300;10.180;2022-11-11T11:01:46;13.40;99.90
14057;DHT22;7103;54.300;10.180;2022-11-11T11:04:23;13.40;99.90
14057;DHT22;7103;54.300;10.180;2022-11-11T11:06:54;13.40;99.90
14057;DHT22;7103;54.300;10.180;2022-11-11T11:09:29;13.40;99.90
14057;DHT22;7103;54.300;10.180;2022-11-11T11:12:17;13.40;99.90
14057;DHT22;7103;54.300;10.180;2022-11-11T11:14:50;13.40;99.90
14057;DHT22;7103;54.300;10.180;2022-11-11T11:17:23;13.40;99.90
14057;DHT22;7103;54.300;10.180;2022-11-11T11:20:18;13.40;99.90
14057;DHT22;7103;54.300;10.180;2022-11-11T11:22:53;13.40;99.90
14057;DHT22;7103;54.300;10.180;2022-11-11T11:25:22;13.40;99.90
14057;DHT22;7103;54.300;10.180;2022-11-11T11:27:50;13.40;99.90
14057;DHT22;7103;54.300;10.180;2022-11-11T11:30:24;13.40;99.90
14057;DHT22;7103;54.300;10.180;2022-11-11T11:33:03;13.40;99.90
14057;DHT22;7103;54.300;10.180;2022-11-11T11:37:59;13.40;99.90
14057;DHT22;7103;54.300;10.180;2022-11-11T11:41:01;13.40;99.90
14057;DHT22;7103;54.300;10.180;2022-11-11T11:43:39;13.30;99.90
14057;DHT22;7103;54.300;10.180;2022-11-11T11:46:27;13.40;99.90
14057;DHT22;7103;54.300;10.180;2022-11-11T11:49:16;13.40;99.90
14057;DHT22;7103;54.300;10.180;2022-11-11T11:51:55;13.40;99.90
14057;DHT22;7103;54.300;10.180;2022-11-11T11:55:03;13.50;99.90
14057;DHT22;7103;54.300;10.180;2022-11-11T11:57:49;13.60;99.90
14057;DHT22;7103;54.300;10.180;2022-11-11T12:00:27;13.60;99.90
14057;DHT22;7103;54.300;10.180;2022-11-11T12:03:14;13.60;99.90
14057;DHT22;7103;54.300;10.180;2022-11-11T12:05:53;13.50;99.90
14057;DHT22;7103;54.300;10.180;2022-11-11T12:08:41;13.50;99.90
14057;DHT22;7103;54.300;10.180;2022-11-11T12:11:52;13.50;99.90
14057;DHT22;7103;54.300;10.180;2022-11-11T12:33:56;13.40;99.90
14057;DHT22;7103;54.300;10.180;2022-11-11T12:45:45;13.30;99.90
14057;DHT22;7103;54.300;10.180;2022-11-11T12:48:35;13.30;99.90
14057;DHT22;7103;54.300;10.180;2022-11-11T12:57:18;13.30;99.90
14057;DHT22;7103;54.300;10.180;2022-11-11T13:05:34;13.30;99.90
14057;DHT22;7103;54.300;10.180;2022-11-11T13:17:11;13.20;99.90
14057;DHT22;7103;54.300;10.180;2022-11-11T13:19:54;13.30;99.90
14057;DHT22;7103;54.300;10.180;2022-11-11T13:22:25;13.20;99.90
14057;DHT22;7103;54.300;10.180;2022-11-11T13:24:54;13.20;99.90
14057;DHT22;7103;54.300;10.180;2022-11-11T13:35:41;13.20;99.90
14057;DHT22;7103;54.300;10.180;2022-11-11T13:41:08;13.10;99.90
14057;DHT22;7103;54.300;10.180;2022-11-11T13:43:44;13.10;99.90
14057;DHT22;7103;54.300;10.180;2022-11-11T13:48:59;13.10;99.90
14057;DHT22;7103;54.300;10.180;2022-11-11T13:51:37;13.10;99.90
14057;DHT22;7103;54.300;10.180;2022-11-11T13:54:20;13.00;99.90
14057;DHT22;7103;54.300;10.180;2022-11-11T13:56:48;13.10;99.90
14057;DHT22;7103;54.300;10.180;2022-11-11T13:59:27;13.10;99.90
14057;DHT22;7103;54.300;10.180;2022-11-11T14:15:51;13.00;99.90
14057;DHT22;7103;54.300;10.180;2022-11-11T14:20:50;12.90;99.90
14057;DHT22;7103;54.300;10.180;2022-11-11T14:23:51;12.90;99.90
14057;DHT22;7103;54.300;10.180;2022-11-11T14:26:21;12.90;99.90
14057;DHT22;7103;54.300;10.180;2022-11-11T14:36:55;12.90;99.90
14057;DHT22;7103;54.300;10.180;2022-11-11T14:39:46;12.90;99.90
14057;DHT22;7103;54.300;10.180;2022-11-11T14:44:59;12.90;99.90
14057;DHT22;7103;54.300;10.180;2022-11-11T14:47:34;12.90;99.90
14057;DHT22;7103;54.300;10.180;2022-11-11T14:50:06;12.90;99.90
14057;DHT22;7103;54.300;10.180;2022-11-11T14:52:50;12.90;99.90
14057;DHT22;7103;54.300;10.180;2022-11-11T15:00:30;12.80;99.90
14057;DHT22;7103;54.300;10.180;2022-11-11T15:05:52;12.80;99.90
14057;DHT22;7103;54.300;10.180;2022-11-11T15:08:35;12.80;99.90
14057;DHT22;7103;54.300;10.180;2022-11-11T15:33:52;12.70;99.90
14057;DHT22;7103;54.300;10.180;2022-11-11T15:39:08;12.70;99.90
14057;DHT22;7103;54.300;10.180;2022-11-11T15:41:39;12.70;99.90
14057;DHT22;7103;54.300;10.180;2022-11-11T15:44:22;12.60;99.90
14057;DHT22;7103;54.300;10.180;2022-11-11T15:46:51;12.60;99.90
14057;DHT22;7103;54.300;10.180;2022-11-11T15:49:42;12.60;99.90
14057;DHT22;7103;54.300;10.180;2022-11-11T15:54:49;12.60;99.90
14057;DHT22;7103;54.300;10.180;2022-11-11T15:57:31;12.50;99.90
14057;DHT22;7103;54.300;10.180;2022-11-11T16:00:01;12.60;99.90
14057;DHT22;7103;54.300;10.180;2022-11-11T16:02:33;12.50;99.90
14057;DHT22;7103;54.300;10.180;2022-11-11T16:05:06;12.50;99.90
14057;DHT22;7103;54.300;10.180;2022-11-11T16:07:36;12.50;99.90
14057;DHT22;7103;54.300;10.180;2022-11-11T16:10:20;12.40;99.90
14057;DHT22;7103;54.300;10.180;2022-11-11T16:13:16;12.40;99.90
14057;DHT22;7103;54.300;10.180;2022-11-11T16:15:52;12.40;99.90
14057;DHT22;7103;54.300;10.180;2022-11-11T16:18:27;12.40;99.90
14057;DHT22;7103;54.300;10.180;2022-11-11T16:21:03;12.40;99.90
14057;DHT22;7103;54.300;10.180;2022-11-11T16:23:32;12.40;99.90
14057;DHT22;7103;54.300;10.180;2022-11-11T16:25:59;12.40;99.90
14057;DHT22;7103;54.300;10.180;2022-11-11T16:28:30;12.40;99.90
14057;DHT22;7103;54.300;10.180;2022-11-11T16:31:01;12.40;99.90
14057;DHT22;7103;54.300;10.180;2022-11-11T16:33:45;12.40;99.90
14057;DHT22;7103;54.300;10.180;2022-11-11T16:36:12;12.40;99.90
14057;DHT22;7103;54.300;10.180;2022-11-11T16:38:39;12.40;99.90
14057;DHT22;7103;54.300;10.180;2022-11-11T16:41:41;12.40;99.90
14057;DHT22;7103;54.300;10.180;2022-11-11T16:46:55;12.40;99.90
14057;DHT22;7103;54.300;10.180;2022-11-11T16:49:30;12.40;99.90
14057;DHT22;7103;54.300;10.180;2022-11-11T16:52:38;12.50;99.90
14057;DHT22;7103;54.300;10.180;2022-11-11T16:55:09;12.40;99.90
14057;DHT22;7103;54.300;10.180;2022-11-11T16:57:39;12.40;99.90
14057;DHT22;7103;54.300;10.180;2022-11-11T17:00:21;12.40;99.90
14057;DHT22;7103;54.300;10.180;2022-11-11T17:05:55;12.40;99.90
14057;DHT22;7103;54.300;10.180;2022-11-11T17:10:56;12.50;99.90
14057;DHT22;7103;54.300;10.180;2022-11-11T17:13:25;12.40;99.90
14057;DHT22;7103;54.300;10.180;2022-11-11T17:15:54;12.40;99.90
14057;DHT22;7103;54.300;10.180;2022-11-11T17:18:21;12.40;99.90
14057;DHT22;7103;54.300;10.180;2022-11-11T17:20:48;12.40;99.90
14057;DHT22;7103;54.300;10.180;2022-11-11T17:23:17;12.40;99.90
14057;DHT22;7103;54.300;10.180;2022-11-11T17:25:45;12.40;99.90
14057;DHT22;7103;54.300;10.180;2022-11-11T17:28:11;12.40;99.90
14057;DHT22;7103;54.300;10.180;2022-11-11T17:30:38;12.30;99.90
14057;DHT22;7103;54.300;10.180;2022-11-11T17:33:05;12.30;99.90
14057;DHT22;7103;54.300;10.180;2022-11-11T17:35:32;12.40;99.90
14057;DHT22;7103;54.300;10.180;2022-11-11T17:37:59;12.40;99.90
14057;DHT22;7103;54.300;10.180;2022-11-11T17:40:26;12.40;99.90
14057;DHT22;7103;54.300;10.180;2022-11-11T17:42:52;12.40;99.90
14057;DHT22;7103;54.300;10.180;2022-11-11T17:45:19;12.40;99.90
14057;DHT22;7103;54.300;10.180;2022-11-11T17:47:46;12.40;99.90
14057;DHT22;7103;54.300;10.180;2022-11-11T17:50:13;12.40;99.90
14057;DHT22;7103;54.300;10.180;2022-11-11T17:52:40;12.40;99.90
14057;DHT22;7103;54.300;10.180;2022-11-11T17:55:07;12.30;99.90
14057;DHT22;7103;54.300;10.180;2022-11-11T17:57:34;12.30;99.90
14057;DHT22;7103;54.300;10.180;2022-11-11T18:00:01;12.30;99.90
14057;DHT22;7103;54.300;10.180;2022-11-11T18:02:28;12.40;99.90
14057;DHT22;7103;54.300;10.180;2022-11-11T18:04:55;12.40;99.90
14057;DHT22;7103;54.300;10.180;2022-11-11T18:07:23;12.40;99.90
14057;DHT22;7103;54.300;10.180;2022-11-11T18:09:50;12.40;99.90
14057;DHT22;7103;54.300;10.180;2022-11-11T18:12:17;12.50;99.90
14057;DHT22;7103;54.300;10.180;2022-11-11T18:14:44;12.40;99.90
14057;DHT22;7103;54.300;10.180;2022-11-11T18:17:11;12.40;99.90
14057;DHT22;7103;54.300;10.180;2022-11-11T18:19:38;12.40;99.90
14057;DHT22;7103;54.300;10.180;2022-11-11T18:22:05;12.50;99.90
14057;DHT22;7103;54.300;10.180;2022-11-11T18:24:32;12.40;99.90
14057;DHT22;7103;54.300;10.180;2022-11-11T18:26:59;12.50;99.90
14057;DHT22;7103;54.300;10.180;2022-11-11T18:29:26;12.50;99.90
14057;DHT22;7103;54.300;10.180;2022-11-11T18:31:54;12.50;99.90
14057;DHT22;7103;54.300;10.180;2022-11-11T18:34:22;12.50;99.90
14057;DHT22;7103;54.300;10.180;2022-11-11T18:36:52;12.50;99.90
14057;DHT22;7103;54.300;10.180;2022-11-11T18:39:19;12.50;99.90
14057;DHT22;7103;54.300;10.180;2022-11-11T18:41:46;12.50;99.90
14057;DHT22;7103;54.300;10.180;2022-11-11T18:44:13;12.60;99.90
14057;DHT22;7103;54.300;10.180;2022-11-11T18:46:40;12.60;99.90
14057;DHT22;7103;54.300;10.180;2022-11-11T18:49:11;12.60;99.90
14057;DHT22;7103;54.300;10.180;2022-11-11T18:51:38;12.60;99.90
14057;DHT22;7103;54.300;10.180;2022-11-11T18:54:06;12.60;99.90